Time;durP1;ratioP1;P1;durP2;ratioP2;P2;SDS_P1;SDS_P2;PMS_P1;PMS_P2;Temp;Humidity;BMP_temperature;BMP_pressure;BME280_temperature;BME280_humidity;BME280_pressure;Samples;Min_cycle;Max_cycle;Signal;HPM_P1;HPM_P2
2023/06/16 00:03:49;;;;;;;10.00;8.37;;;;;;;15.59;100.00;100588.66;5008080;57;1142941;-70
2023/06/16 00:08:55;;;;;;;10.03;7.13;;;;;;;15.49;100.00;100582.52;5084639;56;1143237;-70
2023/06/16 00:14:01;;;;;;;11.70;8.57;;;;;;;15.44;100.00;100581.62;5068017;57;1143895;-70
2023/06/16 00:19:06;;;;;;;11.50;8.13;;;;;;;15.37;100.00;100581.89;5016343;58;1142689;-68
2023/06/16 00:24:12;;;;;;;15.93;8.60;;;;;;;15.18;100.00;100575.31;5031384;57;1142743;-72
2023/06/16 00:29:18;;;;;;;11.67;8.37;;;;;;;15.03;100.00;100584.28;5083974;57;1142826;-71
2023/06/16 00:34:23;;;;;;;14.37;7.70;;;;;;;14.99;100.00;100574.90;4915631;58;1142684;-67
2023/06/16 00:39:29;;;;;;;8.10;7.33;;;;;;;14.98;100.00;100567.05;4790992;60;1143050;-72
2023/06/16 00:44:36;;;;;;;9.50;7.67;;;;;;;14.93;100.00;100568.84;4890993;59;1140904;-69
2023/06/16 00:49:43;;;;;;;16.90;8.00;;;;;;;14.92;100.00;100562.33;4872630;58;1140748;-71
2023/06/16 00:54:48;;;;;;;10.67;7.60;;;;;;;14.94;100.00;100562.53;4842364;58;1142665;-69
2023/06/16 00:59:55;;;;;;;8.13;7.33;;;;;;;14.92;100.00;100560.50;4831975;60;1143019;-67
2023/06/16 01:05:02;;;;;;;12.63;7.07;;;;;;;14.89;100.00;100562.13;4880798;58;1140871;-69
2023/06/16 01:10:21;;;;;;;7.97;7.07;;;;;;;14.88;100.00;100555.61;5010360;58;1143121;-68
2023/06/16 01:15:29;;;;;;;12.60;8.70;;;;;;;14.90;100.00;100553.64;4866802;59;1140591;-67
2023/06/16 01:20:51;;;;;;;12.47;7.87;;;;;;;14.85;100.00;100561.22;5039785;58;1143130;-72
2023/06/16 01:26:06;;;;;;;;;;;;;;;14.76;100.00;100558.45;4976575;58;1142801;-68
2023/06/16 01:31:12;;;;;;;8.90;7.23;;;;;;;14.65;100.00;100557.30;4719440;58;978290;-70
2023/06/16 01:36:18;;;;;;;9.75;7.42;;;;;;;14.52;100.00;100565.22;4535049;62;1139093;-70
2023/06/16 01:41:24;;;;;;;10.03;7.67;;;;;;;14.39;100.00;100560.17;4730347;59;1140802;-67
2023/06/16 01:46:30;;;;;;;9.23;6.62;;;;;;;14.32;100.00;100553.77;4760815;60;1143205;-70
2023/06/16 01:51:37;;;;;;;12.57;6.40;;;;;;;14.32;100.00;100563.08;4704521;61;1141130;-70
2023/06/16 01:56:44;;;;;;;7.78;6.50;;;;;;;14.33;100.00;100560.27;4751839;59;1142641;-70
2023/06/16 02:01:53;;;;;;;10.40;7.67;;;;;;;14.32;100.00;100553.27;4604455;61;1140608;-72
2023/06/16 02:12:28;;;;;;;8.47;6.33;;;;;;;14.06;100.00;100550.81;5331425;55;46192;-66
2023/06/16 02:17:33;;;;;;;6.70;5.63;;;;;;;13.94;100.00;100551.45;5037971;57;1136746;-67
2023/06/16 02:22:39;;;;;;;12.30;7.27;;;;;;;13.88;100.00;100552.52;4970051;58;1140816;-68
2023/06/16 02:27:45;;;;;;;8.93;6.97;;;;;;;13.80;100.00;100551.88;4987676;58;1143296;-69
2023/06/16 02:32:50;;;;;;;9.43;6.77;;;;;;;13.75;100.00;100548.78;4951955;58;1140816;-69
2023/06/16 02:37:56;;;;;;;7.33;6.50;;;;;;;13.68;100.00;100549.84;5004135;57;1141402;-67
2023/06/16 02:43:02;;;;;;;7.93;6.30;;;;;;;13.71;100.00;100551.39;5171687;57;1141056;-68
2023/06/16 02:48:08;;;;;;;7.60;6.80;;;;;;;13.74;100.00;100544.47;4999895;59;1140923;-68
2023/06/16 02:53:13;;;;;;;9.60;7.30;;;;;;;13.71;100.00;100549.57;4998305;59;1140620;-67
2023/06/16 02:58:20;;;;;;;11.27;7.83;;;;;;;13.74;100.00;100547.12;4991365;58;1140729;-71
2023/06/16 03:03:30;;;;;;;8.53;7.07;;;;;;;13.86;100.00;100550.48;5003186;57;1142937;-72
2023/06/16 03:08:35;;;;;;;9.10;6.90;;;;;;;13.94;100.00;100555.45;5056526;57;1140630;-72
2023/06/16 03:13:41;;;;;;;11.53;7.57;;;;;;;13.90;100.00;100552.70;5132098;57;1141009;-67
2023/06/16 03:18:47;;;;;;;17.00;7.57;;;;;;;13.88;100.00;100544.55;5169112;55;1142878;-67
2023/06/16 03:29:05;;;;;;;12.33;8.43;;;;;;;13.94;100.00;100543.97;5305601;55;46118;-70
2023/06/16 03:34:11;;;;;;;16.03;9.00;;;;;;;13.93;100.00;100547.61;5082485;58;1139068;-66
2023/06/16 03:39:19;;;;;;;11.73;8.97;;;;;;;14.03;100.00;100537.83;5024975;58;1142864;-69
2023/06/16 03:44:25;;;;;;;19.93;10.07;;;;;;;14.06;100.00;100528.21;5091509;58;1142986;-66
2023/06/16 03:49:31;;;;;;;16.50;10.57;;;;;;;14.14;100.00;100528.85;5124185;58;1145495;-68
2023/06/16 03:54:37;;;;;;;18.03;12.70;;;;;;;14.24;100.00;100533.66;5074880;58;1144763;-65
2023/06/16 03:59:43;;;;;;;16.13;10.70;;;;;;;14.27;100.00;100532.89;5087177;57;1144734;-66
2023/06/16 04:04:51;;;;;;;15.00;9.53;;;;;;;14.35;100.00;100523.73;5041803;56;1145158;-65
2023/06/16 04:09:58;;;;;;;12.33;10.67;;;;;;;14.35;100.00;100537.03;5083889;57;1142840;-66
2023/06/16 04:15:05;;;;;;;13.30;11.10;;;;;;;14.38;100.00;100532.72;5097725;57;1144903;-67
2023/06/16 04:20:12;;;;;;;11.93;10.70;;;;;;;14.54;100.00;100528.66;5052065;57;1144829;-70
2023/06/16 04:25:18;;;;;;;14.53;12.50;;;;;;;14.57;100.00;100521.23;5101428;57;1144903;-67
2023/06/16 04:30:24;;;;;;;14.07;12.33;;;;;;;14.64;100.00;100533.00;5058098;57;1145091;-67
2023/06/16 04:35:31;;;;;;;16.87;13.10;;;;;;;14.70;100.00;100527.56;5101472;56;1145125;-68
2023/06/16 04:40:38;;;;;;;15.97;12.83;;;;;;;14.80;100.00;100525.73;5046901;57;1145098;-70
2023/06/16 04:45:45;;;;;;;39.80;12.70;;;;;;;14.88;100.00;100511.67;5027774;56;1144772;-71
2023/06/16 04:50:52;;;;;;;16.00;12.70;;;;;;;14.98;100.00;100500.47;5084783;56;1144779;-66
2023/06/16 04:55:58;;;;;;;14.95;11.60;;;;;;;15.08;100.00;100503.45;5111414;55;1145192;-70
2023/06/16 05:01:04;;;;;;;14.67;10.80;;;;;;;15.25;100.00;100504.97;5230917;55;1145223;-70
2023/06/16 05:06:10;;;;;;;12.80;9.50;;;;;;;15.42;100.00;100506.34;5165452;56;1145097;-67
2023/06/16 05:11:16;;;;;;;10.83;8.47;;;;;;;15.57;100.00;100503.19;5197973;55;1142996;-70
2023/06/16 05:16:21;;;;;;;12.67;7.43;;;;;;;15.70;100.00;100507.15;5222111;55;1143167;-69
2023/06/16 05:21:27;;;;;;;12.70;8.57;;;;;;;15.84;100.00;100509.77;5146292;57;1142821;-66
2023/06/16 05:26:34;;;;;;;8.13;7.33;;;;;;;15.92;100.00;100505.83;5083059;56;1142804;-68
2023/06/16 05:31:40;;;;;;;8.83;6.40;;;;;;;16.04;100.00;100507.26;5166004;56;1141161;-69
2023/06/16 05:36:46;;;;;;;7.35;5.28;;;;;;;16.17;100.00;100508.22;5116147;56;1140767;-68
2023/06/16 05:41:54;;;;;;;7.40;6.20;;;;;;;16.21;100.00;100509.56;5026343;56;1142329;-65
2023/06/16 05:46:59;;;;;;;8.97;5.47;;;;;;;16.32;100.00;100507.99;5122977;56;1140902;-70
2023/06/16 05:52:06;;;;;;;5.83;5.23;;;;;;;16.41;100.00;100510.20;5063176;56;1140614;-69
2023/06/16 05:57:13;;;;;;;5.60;5.00;;;;;;;16.53;100.00;100505.78;5080288;56;1140811;-67
2023/06/16 06:02:19;;;;;;;5.53;5.00;;;;;;;16.68;100.00;100510.56;5044930;56;1140654;-66
2023/06/16 06:07:27;;;;;;;6.53;5.93;;;;;;;16.81;100.00;100504.29;5079497;55;1140652;-65
2023/06/16 06:12:32;;;;;;;5.67;4.60;;;;;;;16.90;100.00;100514.03;5058044;55;1140953;-66
2023/06/16 06:17:38;;;;;;;5.50;5.00;;;;;;;17.01;100.00;100511.07;5015923;56;1140678;-68
2023/06/16 06:22:44;;;;;;;6.53;5.67;;;;;;;17.11;100.00;100514.97;4928144;56;1140836;-66
2023/06/16 06:27:51;;;;;;;8.23;5.40;;;;;;;17.18;100.00;100511.97;4992700;57;1141007;-67
2023/06/16 06:33:00;;;;;;;7.03;6.37;;;;;;;17.26;100.00;100518.70;4993893;57;1140722;-69
2023/06/16 06:38:06;;;;;;;8.57;5.77;;;;;;;17.32;100.00;100525.22;5012970;57;1140758;-67
2023/06/16 06:43:12;;;;;;;8.70;6.53;;;;;;;17.44;100.00;100523.41;4993353;57;1140713;-66
2023/06/16 06:48:22;;;;;;;6.53;5.90;;;;;;;17.66;100.00;100529.19;4992927;57;1140625;-68
2023/06/16 06:53:29;;;;;;;9.83;5.43;;;;;;;17.84;100.00;100535.23;5009045;57;1140650;-68
2023/06/16 06:58:35;;;;;;;4.37;4.07;;;;;;;17.88;100.00;100528.03;4993488;57;1140710;-68
2023/06/16 07:03:40;;;;;;;6.53;4.70;;;;;;;18.05;100.00;100533.39;5009907;57;1140889;-69
2023/06/16 07:08:46;;;;;;;5.73;4.40;;;;;;;18.10;100.00;100541.77;5038334;57;1140980;-69
2023/06/16 07:13:51;;;;;;;4.83;4.42;;;;;;;17.96;100.00;100533.91;4941062;57;1140715;-68
2023/06/16 07:18:57;;;;;;;9.50;4.42;;;;;;;17.84;100.00;100529.89;4992087;56;1140727;-69
2023/06/16 07:24:03;;;;;;;5.30;4.73;;;;;;;17.75;100.00;100530.86;5014650;56;1140850;-68
2023/06/16 07:29:09;;;;;;;6.50;4.97;;;;;;;17.71;100.00;100537.06;5030914;56;1140850;-70
2023/06/16 07:34:14;;;;;;;5.73;5.20;;;;;;;17.68;100.00;100539.22;5092490;56;1140944;-67
2023/06/16 07:39:21;;;;;;;7.23;5.63;;;;;;;17.64;100.00;100532.02;4957388;57;1140755;-67
2023/06/16 07:44:27;;;;;;;5.97;5.37;;;;;;;17.66;100.00;100532.70;4833550;59;1140772;-67
2023/06/16 07:49:32;;;;;;;10.47;6.97;;;;;;;17.70;100.00;100536.73;4927771;57;1140757;-68
2023/06/16 07:54:40;;;;;;;8.03;7.17;;;;;;;17.78;100.00;100538.06;5012296;57;1143147;-69
2023/06/16 07:59:45;;;;;;;10.77;6.50;;;;;;;18.04;100.00;100539.25;5057198;56;1141398;-68
2023/06/16 08:04:51;;;;;;;8.03;5.87;;;;;;;18.40;100.00;100536.23;4978674;56;1143231;-65
2023/06/16 08:09:56;;;;;;;6.22;5.03;;;;;;;18.71;100.00;100535.87;4969792;56;1141314;-71
2023/06/16 08:15:03;;;;;;;5.37;4.92;;;;;;;19.15;100.00;100535.40;4989583;57;1140746;-68
2023/06/16 08:20:10;;;;;;;6.05;4.33;;;;;;;19.23;100.00;100538.06;4972390;57;1140754;-66
2023/06/16 08:25:16;;;;;;;3.70;3.40;;;;;;;19.36;100.00;100534.31;4987444;56;1140851;-67
2023/06/16 08:30:21;;;;;;;9.60;4.40;;;;;;;19.44;100.00;100529.39;5022725;56;1141034;-70
2023/06/16 08:35:27;;;;;;;6.22;3.67;;;;;;;19.36;100.00;100526.77;4991084;56;1140678;-70
2023/06/16 08:40:33;;;;;;;6.78;4.85;;;;;;;19.30;100.00;100529.63;5055902;56;1140773;-70
2023/06/16 08:45:39;;;;;;;5.58;3.72;;;;;;;19.13;100.00;100534.73;5066304;56;1140821;-69
2023/06/16 08:50:46;;;;;;;6.30;4.15;;;;;;;19.01;100.00;100536.97;5051979;55;1141039;-70
2023/06/16 08:55:53;;;;;;;4.70;4.28;;;;;;;19.11;100.00;100532.22;5105655;55;1140975;-65
2023/06/16 09:01:01;;;;;;;3.77;3.50;;;;;;;19.18;100.00;100539.91;5036508;56;1141149;-70
2023/06/16 09:06:09;;;;;;;5.25;4.20;;;;;;;19.28;100.00;100528.97;5125751;56;1140780;-70
2023/06/16 09:11:26;;;;;;;4.08;3.67;;;;;;;19.38;100.00;100532.80;5102728;56;1140746;-70
2023/06/16 09:16:32;;;;;;;7.17;3.80;;;;;;;19.47;100.00;100533.91;5021828;56;1141109;-72
2023/06/16 09:21:38;;;;;;;4.17;3.27;;;;;;;19.56;100.00;100528.84;5115405;56;1140951;-70
2023/06/16 09:26:44;;;;;;;5.95;3.50;;;;;;;19.60;100.00;100531.52;5015486;56;1156463;-68
2023/06/16 09:31:50;;;;;;;5.92;3.00;;;;;;;19.55;100.00;100527.70;5077298;55;1140852;-69
2023/06/16 09:36:56;;;;;;;10.75;3.98;;;;;;;19.55;100.00;100529.05;5159631;55;1141019;-67
2023/06/16 09:42:03;;;;;;;7.97;4.25;;;;;;;19.67;100.00;100528.97;5213579;55;1142979;-70
2023/06/16 09:47:11;;;;;;;6.42;3.80;;;;;;;19.82;100.00;100523.66;5146048;55;1140731;-67
2023/06/16 09:52:18;;;;;;;4.05;3.65;;;;;;;19.82;100.00;100530.38;5195019;55;1140844;-68
2023/06/16 09:57:24;;;;;;;3.58;3.27;;;;;;;19.79;100.00;100515.46;5167067;55;1141013;-68
2023/06/16 10:02:30;;;;;;;5.03;4.47;;;;;;;19.77;100.00;100527.38;5109837;55;1140942;-70
2023/06/16 10:07:38;;;;;;;6.70;3.62;;;;;;;19.75;100.00;100524.87;5113302;55;1141060;-70
2023/06/16 10:12:49;;;;;;;6.62;3.52;;;;;;;19.75;100.00;100522.69;5160354;55;1140849;-72
2023/06/16 10:18:07;;;;;;;7.65;3.15;;;;;;;19.78;100.00;100519.66;5184302;55;1141143;-69
2023/06/16 10:23:10;;;;;;;8.10;3.37;;;;;;;19.82;100.00;100519.13;5140153;55;1140935;-68
2023/06/16 10:28:17;;;;;;;5.35;3.50;;;;;;;19.83;100.00;100514.60;5227040;55;1140841;-66
2023/06/16 10:33:30;;;;;;;4.80;3.15;;;;;;;19.81;100.00;100513.94;5206679;55;1140790;-67
2023/06/16 10:38:36;;;;;;;5.72;4.67;;;;;;;19.80;100.00;100517.13;5105543;55;1140957;-68
2023/06/16 10:43:42;;;;;;;5.08;4.25;;;;;;;19.77;100.00;100509.43;5169643;55;1140811;-67
2023/06/16 10:49:10;;;;;;;4.10;3.80;;;;;;;19.72;100.00;100511.80;5123266;55;1185941;-68
2023/06/16 10:54:37;;;;;;;9.18;3.72;;;;;;;19.69;100.00;100509.50;5174940;55;1176863;-68
2023/06/16 10:59:59;;;;;;;4.17;3.75;;;;;;;19.75;100.00;100518.67;5090973;56;1140725;-71
2023/06/16 11:05:13;;;;;;;9.73;4.33;;;;;;;19.76;100.00;100507.77;5073351;56;1140755;-67
2023/06/16 11:10:21;;;;;;;14.93;11.15;;;;;;;19.86;100.00;100511.03;5105770;55;1140694;-68
2023/06/16 11:15:26;;;;;;;4.15;3.87;;;;;;;19.99;100.00;100503.23;5094652;56;1145223;-68
2023/06/16 11:20:32;;;;;;;9.38;4.72;;;;;;;20.39;100.00;100495.84;5155196;54;1140899;-69
2023/06/16 11:25:38;;;;;;;9.18;4.42;;;;;;;20.58;100.00;100493.14;5121178;55;1245613;-68
2023/06/16 11:30:44;;;;;;;8.53;4.87;;;;;;;20.89;100.00;100491.61;5141729;56;1140936;-71
2023/06/16 11:35:50;;;;;;;4.47;3.70;;;;;;;21.25;100.00;100484.43;5080726;56;1140972;-70
2023/06/16 11:40:55;;;;;;;4.37;3.52;;;;;;;21.55;100.00;100477.62;5055244;56;1140913;-68
2023/06/16 11:46:01;;;;;;;8.08;3.90;;;;;;;21.86;100.00;100474.09;5093610;55;1140823;-68
2023/06/16 11:51:07;;;;;;;5.13;3.73;;;;;;;22.15;100.00;100474.50;5135555;55;1253168;-67
2023/06/16 11:56:17;;;;;;;6.78;4.35;;;;;;;22.36;100.00;100460.97;5126423;55;1252273;-70
2023/06/16 12:01:25;;;;;;;7.37;3.87;;;;;;;22.34;100.00;100460.84;5113041;54;1243233;-71
2023/06/16 12:06:31;;;;;;;7.33;4.10;;;;;;;22.46;100.00;100443.92;5116742;55;1141224;-68
2023/06/16 12:11:37;;;;;;;4.65;4.22;;;;;;;22.82;100.00;100439.38;5071977;55;1141143;-68
2023/06/16 12:16:43;;;;;;;6.87;3.70;;;;;;;22.90;100.00;100440.06;5087113;56;1140857;-71
2023/06/16 12:21:56;;;;;;;6.80;4.00;;;;;;;22.67;100.00;100440.31;5067060;55;1246217;-71
2023/06/16 12:27:01;;;;;;;3.98;3.60;;;;;;;22.43;100.00;100440.81;5116192;55;1240915;-68
2023/06/16 12:32:09;;;;;;;4.65;3.83;;;;;;;22.23;100.00;100437.97;5047132;56;1244120;-68
2023/06/16 12:37:14;;;;;;;5.70;3.77;;;;;;;22.17;99.48;100435.22;5105770;55;1228196;-64
2023/06/16 12:42:32;;;;;;;4.53;3.67;;;;;;;22.13;100.00;100444.23;5076504;55;1233606;-69
2023/06/16 12:47:36;;;;;;;8.33;4.03;;;;;;;22.27;100.00;100435.73;5129100;56;1241802;-69
2023/06/16 12:52:41;;;;;;;5.47;4.03;;;;;;;22.35;100.00;100429.66;5100473;55;1245560;-71
2023/06/16 12:57:47;;;;;;;5.42;3.70;;;;;;;22.28;100.00;100425.27;5111563;55;1140811;-69
2023/06/16 13:02:52;;;;;;;5.97;3.67;;;;;;;22.20;99.91;100434.83;5083018;54;1140899;-67
2023/06/16 13:07:58;;;;;;;5.75;3.85;;;;;;;22.10;100.00;100425.77;5088836;55;1139152;-71
2023/06/16 13:13:03;;;;;;;9.60;4.13;;;;;;;;;;5134967;55;1141380;-68
2023/06/16 13:18:07;;;;;;;6.12;3.90;;;;;;;;;;5157701;55;818204;-70
2023/06/16 13:23:12;;;;;;;5.33;4.20;;;;;;;22.08;100.00;100423.77;5192175;55;815659;-71
2023/06/16 13:28:18;;;;;;;5.33;3.35;;;;;;;22.13;100.00;100421.84;5153485;55;1139244;-64
2023/06/16 13:33:24;;;;;;;7.12;4.22;;;;;;;22.27;100.00;100418.22;5162822;55;1186962;-70
2023/06/16 13:38:30;;;;;;;4.47;4.08;;;;;;;22.40;100.00;100423.69;5171037;55;1140896;-73
2023/06/16 13:43:35;;;;;;;4.10;3.70;;;;;;;22.46;97.94;100416.97;5105654;55;1141078;-66
2023/06/16 13:48:41;;;;;;;7.58;4.25;;;;;;;22.47;98.65;100409.72;5133759;55;1138839;-68
2023/06/16 13:53:47;;;;;;;7.37;4.35;;;;;;;22.58;97.23;100397.56;5081168;56;1138725;-74
2023/06/16 13:58:52;;;;;;;9.53;4.08;;;;;;;22.80;98.07;100392.39;5163468;55;1220983;-75
2023/06/16 14:03:58;;;;;;;8.33;5.00;;;;;;;23.07;97.95;100388.73;5089114;55;1138750;-70
2023/06/16 14:09:03;;;;;;;9.83;4.37;;;;;;;23.20;98.39;100385.27;5182500;56;1138632;-71
2023/06/16 14:14:09;;;;;;;6.17;3.77;;;;;;;23.08;96.65;100389.56;5085020;56;1138983;-68
2023/06/16 14:19:14;;;;;;;4.50;4.10;;;;;;;22.84;97.52;100390.95;5121485;55;1138714;-75
2023/06/16 14:24:20;;;;;;;5.20;4.15;;;;;;;22.72;97.77;100387.15;5188986;55;1139130;-67
2023/06/16 14:29:26;;;;;;;6.05;5.17;;;;;;;22.54;97.84;100390.38;5094349;55;1139055;-73
2023/06/16 14:34:31;;;;;;;14.85;5.37;;;;;;;22.39;100.00;100393.72;5129049;55;1138836;-72
2023/06/16 14:39:37;;;;;;;13.20;5.20;;;;;;;22.23;100.00;100399.42;5126305;56;1143066;-73
2023/06/16 14:44:42;;;;;;;24.98;15.60;;;;;;;22.17;100.00;100413.67;5111139;56;1143030;-70
2023/06/16 14:49:48;;;;;;;29.72;17.15;;;;;;;22.11;100.00;100436.86;5103604;55;1145073;-75
2023/06/16 14:54:54;;;;;;;15.17;6.93;;;;;;;21.88;100.00;100433.52;5106431;55;1145094;-70
2023/06/16 15:00:00;;;;;;;12.55;6.92;;;;;;;21.35;100.00;100427.65;5126672;56;1143140;-71
2023/06/16 15:05:07;;;;;;;8.73;5.33;;;;;;;20.82;100.00;100420.27;5028069;56;1143094;-74
2023/06/16 15:10:12;;;;;;;7.30;6.03;;;;;;;20.44;100.00;100420.92;5066165;55;1140967;-72
2023/06/16 15:15:18;;;;;;;9.55;5.62;;;;;;;20.28;100.00;100437.17;5132795;55;1140722;-73
2023/06/16 15:20:24;;;;;;;11.90;6.90;;;;;;;19.95;100.00;100437.49;5125185;55;1140895;-69
2023/06/16 15:25:30;;;;;;;8.73;5.47;;;;;;;19.60;100.00;100427.37;5056214;56;1143211;-74
2023/06/16 15:30:37;;;;;;;9.52;6.16;;;;;;;19.41;100.00;100419.27;5050307;56;1141107;-71
2023/06/16 15:35:42;;;;;;;8.13;6.55;;;;;;;19.38;100.00;100408.91;5049963;56;1141177;-72
2023/06/16 15:40:48;;;;;;;9.80;6.22;;;;;;;19.39;100.00;100402.54;5085851;56;1140969;-68
2023/06/16 15:45:56;;;;;;;6.90;5.04;;;;;;;19.37;100.00;100392.50;5053237;56;1141205;-69
2023/06/16 15:51:01;;;;;;;5.90;5.10;;;;;;;19.50;100.00;100380.69;5132223;55;1140787;-70
2023/06/16 15:56:07;;;;;;;6.17;5.60;;;;;;;19.75;100.00;100375.93;5119715;55;1140789;-70
2023/06/16 16:01:12;;;;;;;5.40;4.87;;;;;;;20.05;100.00;100359.36;5138292;55;1140596;-74
2023/06/16 16:06:18;;;;;;;7.50;5.25;;;;;;;20.22;100.00;100362.19;5162989;55;1141038;-73
2023/06/16 16:11:24;;;;;;;6.03;5.40;;;;;;;20.47;100.00;100356.05;5131962;55;1141039;-73
2023/06/16 16:16:30;;;;;;;10.03;6.15;;;;;;;20.62;100.00;100358.20;5096598;55;1141184;-69
2023/06/16 16:21:35;;;;;;;14.23;6.72;;;;;;;20.66;100.00;100359.50;5149610;55;1142989;-70
2023/06/16 16:26:41;;;;;;;12.80;7.70;;;;;;;20.71;100.00;100365.16;4981325;57;1142857;-75
2023/06/16 16:31:48;;;;;;;21.97;11.18;;;;;;;20.84;100.00;100363.13;5151887;55;1142714;-69
2023/06/16 16:36:54;;;;;;;15.23;8.40;;;;;;;20.95;100.00;100369.34;5162941;55;1145333;-74
2023/06/16 16:41:59;;;;;;;10.55;6.60;;;;;;;20.97;100.00;100380.75;5128025;55;1143036;-68
2023/06/16 16:47:05;;;;;;;5.25;4.70;;;;;;;20.94;100.00;100374.91;5071521;56;1143032;-72
2023/06/16 16:52:11;;;;;;;9.45;5.03;;;;;;;20.84;100.00;100369.02;4971716;56;1140957;-69
2023/06/16 16:57:17;;;;;;;7.53;5.25;;;;;;;20.83;100.00;100372.72;5010919;56;1140908;-75
2023/06/16 17:02:23;;;;;;;7.00;6.30;;;;;;;20.82;100.00;100371.89;4992358;57;1140787;-69
2023/06/16 17:07:28;;;;;;;8.13;4.65;;;;;;;20.91;100.00;100373.97;4894382;57;1140899;-74
2023/06/16 17:12:34;;;;;;;10.25;6.80;;;;;;;21.03;100.00;100375.13;5036561;57;1140846;-73
2023/06/16 17:17:40;;;;;;;14.95;9.40;;;;;;;21.08;100.00;100377.26;5015407;56;1142944;-71
2023/06/16 17:22:45;;;;;;;20.60;12.95;;;;;;;21.06;100.00;100384.17;5094698;56;1142951;-70
2023/06/16 17:27:51;;;;;;;15.25;11.03;;;;;;;21.04;100.00;100387.05;5020761;56;1145050;-72
2023/06/16 17:32:56;;;;;;;11.75;9.58;;;;;;;21.08;100.00;100396.37;5006373;57;1145248;-68
2023/06/16 17:38:02;;;;;;;13.72;9.48;;;;;;;21.05;100.00;100387.38;4987119;57;1142964;-68
2023/06/16 17:43:08;;;;;;;19.90;9.33;;;;;;;21.08;100.00;100383.47;5033752;56;1143138;-72
2023/06/16 17:48:13;;;;;;;11.05;8.78;;;;;;;21.14;100.00;100381.86;5114497;56;1143207;-69
2023/06/16 17:53:19;;;;;;;21.33;14.93;;;;;;;21.14;100.00;100384.55;5094703;56;1143102;-69
2023/06/16 17:58:25;;;;;;;15.65;10.35;;;;;;;21.12;100.00;100391.45;5094246;56;1145077;-71
2023/06/16 18:03:31;;;;;;;20.35;15.28;;;;;;;21.12;100.00;100390.11;5103670;56;1145007;-69
2023/06/16 18:08:37;;;;;;;19.32;13.72;;;;;;;21.04;100.00;100388.91;5067923;55;1145255;-73
2023/06/16 18:13:42;;;;;;;14.65;12.15;;;;;;;20.98;100.00;100393.17;5070764;56;1145233;-70
2023/06/16 18:18:48;;;;;;;27.10;17.17;;;;;;;20.88;100.00;100393.16;4962495;57;1144930;-73
2023/06/16 18:23:54;;;;;;;21.17;14.87;;;;;;;20.67;100.00;100397.45;4918594;57;1144995;-69
2023/06/16 18:29:00;;;;;;;28.30;16.03;;;;;;;20.57;100.00;100392.05;5011041;57;1145121;-71
2023/06/16 18:34:05;;;;;;;16.73;13.30;;;;;;;20.53;100.00;100392.09;5055118;57;1145049;-70
2023/06/16 18:39:17;;;;;;;15.70;10.80;;;;;;;20.55;100.00;100387.37;5039445;57;1145050;-66
2023/06/16 18:44:23;;;;;;;11.63;9.43;;;;;;;20.47;100.00;100390.16;5045560;56;1145067;-69
2023/06/16 18:49:28;;;;;;;13.90;9.78;;;;;;;20.28;100.00;100391.52;5005248;57;1142919;-69
2023/06/16 18:54:34;;;;;;;16.07;9.55;;;;;;;20.10;100.00;100389.69;5050457;55;1143231;-67
2023/06/16 18:59:40;;;;;;;11.70;8.78;;;;;;;20.00;100.00;100397.52;5102540;55;1143231;-69
2023/06/16 19:04:46;;;;;;;17.57;11.85;;;;;;;20.09;100.00;100400.94;5068361;55;1142891;-72
2023/06/16 19:09:52;;;;;;;25.82;15.55;;;;;;;20.14;100.00;100413.32;5099668;55;1145120;-74
2023/06/16 19:14:57;;;;;;;21.57;15.70;;;;;;;20.11;100.00;100415.02;5110179;55;1145300;-69
2023/06/16 19:20:05;;;;;;;23.35;15.05;;;;;;;19.87;100.00;100422.78;5076260;55;1145143;-74
2023/06/16 19:25:11;;;;;;;19.73;13.57;;;;;;;19.70;100.00;100429.84;5098827;55;1145442;-73
2023/06/16 19:30:17;;;;;;;15.55;12.15;;;;;;;19.49;100.00;100427.30;5096045;56;1144999;-75
2023/06/16 19:35:23;;;;;;;16.57;12.15;;;;;;;19.32;100.00;100420.34;5118756;55;1144834;-73
2023/06/16 19:40:28;;;;;;;13.45;11.28;;;;;;;19.21;100.00;100425.62;5099913;55;1144721;-73
2023/06/16 19:45:34;;;;;;;20.70;11.95;;;;;;;19.20;100.00;100418.58;5073223;55;1144737;-70
2023/06/16 19:50:39;;;;;;;19.37;12.80;;;;;;;19.29;100.00;100417.51;5093032;55;1145195;-71
2023/06/16 19:55:45;;;;;;;17.45;13.45;;;;;;;19.22;100.00;100414.39;5059380;55;1144816;-69
2023/06/16 20:00:51;;;;;;;19.02;17.02;;;;;;;19.20;100.00;100417.75;5001717;57;1145321;-73
2023/06/16 20:05:57;;;;;;;19.07;14.05;;;;;;;19.17;100.00;100424.30;4926844;57;1145101;-73
2023/06/16 20:11:03;;;;;;;17.65;13.83;;;;;;;19.04;100.00;100426.72;5049387;56;1145007;-69
2023/06/16 20:16:08;;;;;;;20.92;13.05;;;;;;;18.94;100.00;100425.58;5012036;56;1145308;-75
2023/06/16 20:21:14;;;;;;;14.23;12.40;;;;;;;18.81;100.00;100422.63;4992656;57;1154339;-69
2023/06/16 20:26:20;;;;;;;14.07;10.90;;;;;;;18.67;100.00;100420.69;5002028;56;1145366;-71
2023/06/16 20:31:26;;;;;;;13.13;11.38;;;;;;;18.79;100.00;100417.95;4988977;56;1145026;-69
2023/06/16 20:36:33;;;;;;;27.55;22.50;;;;;;;18.84;100.00;100426.31;4996000;56;1144946;-69
2023/06/16 20:41:39;;;;;;;28.38;23.55;;;;;;;18.91;100.00;100428.63;5008134;56;1145049;-75
2023/06/16 20:46:45;;;;;;;32.28;27.00;;;;;;;19.04;100.00;100425.38;4993354;56;1145044;-74
2023/06/16 20:51:51;;;;;;;32.13;26.50;;;;;;;19.00;100.00;100425.89;4998922;56;1144965;-70
2023/06/16 20:56:57;;;;;;;35.77;27.53;;;;;;;18.94;100.00;100432.81;5032444;56;1181637;-70
2023/06/16 21:02:05;;;;;;;32.80;21.27;;;;;;;19.02;100.00;100426.56;5074974;56;1145121;-71
2023/06/16 21:07:11;;;;;;;24.13;17.43;;;;;;;19.04;100.00;100427.22;4903101;58;1145025;-66
2023/06/16 21:12:17;;;;;;;19.17;15.13;;;;;;;18.94;100.00;100422.09;5059687;56;1145072;-74
2023/06/16 21:17:23;;;;;;;17.75;14.73;;;;;;;19.00;100.00;100423.22;5086764;56;1144936;-70
2023/06/16 21:22:28;;;;;;;18.48;15.58;;;;;;;19.01;100.00;100426.23;5162618;55;1145143;-69
2023/06/16 21:27:34;;;;;;;26.60;19.77;;;;;;;18.88;100.00;100424.95;5163957;56;1144776;-70
2023/06/16 21:32:40;;;;;;;30.45;20.25;;;;;;;18.74;100.00;100422.18;5184068;56;1144735;-70
2023/06/16 21:37:46;;;;;;;17.62;14.55;;;;;;;18.60;100.00;100427.26;5163741;55;1145232;-73
2023/06/16 21:42:51;;;;;;;13.40;10.80;;;;;;;18.55;100.00;100425.56;5112511;56;1145055;-69
2023/06/16 21:47:57;;;;;;;13.55;10.58;;;;;;;18.36;100.00;100417.91;4977023;57;1145038;-75
2023/06/16 21:53:03;;;;;;;13.10;10.68;;;;;;;18.25;100.00;100408.91;5064347;57;1145064;-70
2023/06/16 21:58:08;;;;;;;9.65;8.75;;;;;;;18.05;100.00;100407.11;5066470;57;1145285;-69
2023/06/16 22:03:15;;;;;;;13.30;8.90;;;;;;;17.69;100.00;100405.32;5066527;57;1140915;-69
2023/06/16 22:08:21;;;;;;;13.90;9.48;;;;;;;17.45;100.00;100407.44;5094979;56;1143103;-68
2023/06/16 22:13:27;;;;;;;12.20;10.80;;;;;;;17.40;100.00;100407.12;5072775;56;1143018;-69
2023/06/16 22:18:33;;;;;;;35.38;22.45;;;;;;;17.53;100.00;100411.97;4994177;56;1145239;-73
2023/06/16 22:23:39;;;;;;;45.05;24.67;;;;;;;17.63;100.00;100416.64;5085342;56;1145374;-67
2023/06/16 22:28:44;;;;;;;36.10;19.67;;;;;;;17.74;100.00;100415.50;5065485;56;1145074;-77
2023/06/16 22:33:50;;;;;;;29.53;16.43;;;;;;;17.85;100.00;100397.79;5065421;56;1145148;-73
2023/06/16 22:38:56;;;;;;;12.88;11.68;;;;;;;17.96;100.00;100401.45;5065453;56;1145281;-72
2023/06/16 22:44:01;;;;;;;15.83;11.00;;;;;;;17.98;100.00;100393.25;5085495;56;1145198;-76
2023/06/16 22:49:07;;;;;;;13.83;11.33;;;;;;;17.72;100.00;100398.80;5058792;56;1145033;-75
2023/06/16 22:54:13;;;;;;;12.00;10.68;;;;;;;17.29;100.00;100406.58;5123372;56;1145175;-67
2023/06/16 22:59:19;;;;;;;15.53;10.15;;;;;;;16.86;100.00;100405.32;5171365;56;1144982;-72